Time;durP1;ratioP1;P1;durP2;ratioP2;P2;SDS_P1;SDS_P2;PMS_P1;PMS_P2;Temp;Humidity;BMP_temperature;BMP_pressure;BME280_temperature;BME280_humidity;BME280_pressure;Samples;Min_cycle;Max_cycle;Signal;HPM_P1;HPM_P2
2023/05/19 00:00:52;;;;;;;8.98;2.75;;;;;;;;;;5033086;28;20100;-71
2023/05/19 00:03:20;;;;;;;12.30;3.42;;;;;;;;;;5031519;28;20101;-71
2023/05/19 00:05:47;;;;;;;12.20;2.95;;;;;;;;;;5031116;28;20013;-70
2023/05/19 00:08:15;;;;;;;7.43;3.28;;;;;;;;;;5025976;28;20026;-70
2023/05/19 00:10:40;;;;;;;15.65;3.15;;;;;;;;;;5031299;28;20471;-70
2023/05/19 00:13:05;;;;;;;7.60;3.85;;;;;;;;;;5032334;28;20043;-70
2023/05/19 00:15:31;;;;;;;8.13;2.75;;;;;;;;;;5029201;28;20028;-70
2023/05/19 00:17:56;;;;;;;9.73;2.70;;;;;;;;;;5029275;28;20037;-69
2023/05/19 00:20:22;;;;;;;5.60;2.40;;;;;;;;;;5030888;28;20036;-69
2023/05/19 00:22:47;;;;;;;7.90;3.00;;;;;;;;;;5031794;28;20021;-69
2023/05/19 00:25:12;;;;;;;8.38;2.80;;;;;;;;;;5032132;28;20280;-70
2023/05/19 00:27:37;;;;;;;7.47;2.70;;;;;;;;;;5030923;28;20379;-69
2023/05/19 00:30:02;;;;;;;7.03;2.70;;;;;;;;;;5032021;28;20024;-70
2023/05/19 00:32:28;;;;;;;11.45;3.22;;;;;;;;;;5026584;28;20387;-69
2023/05/19 00:34:53;;;;;;;11.18;2.65;;;;;;;;;;5030377;28;20024;-69
2023/05/19 00:37:19;;;;;;;10.57;3.10;;;;;;;;;;5030903;28;20490;-70
2023/05/19 00:39:44;;;;;;;8.77;2.95;;;;;;;;;;5031283;28;20334;-70
2023/05/19 00:42:09;;;;;;;10.80;3.37;;;;;;;;;;5030663;28;20028;-70
2023/05/19 00:44:38;;;;;;;12.00;3.00;;;;;;;;;;5029190;28;20370;-70
2023/05/19 00:47:04;;;;;;;9.90;3.10;;;;;;;;;;5029917;28;20018;-70
2023/05/19 00:49:29;;;;;;;14.10;3.10;;;;;;;;;;5029931;28;20024;-70
2023/05/19 00:51:54;;;;;;;8.45;2.60;;;;;;;;;;5030288;28;20028;-70
2023/05/19 00:54:20;;;;;;;8.57;3.03;;;;;;;;;;5032854;28;20541;-71
2023/05/19 00:56:45;;;;;;;14.13;3.40;;;;;;;;;;5030577;28;20045;-70
2023/05/19 00:59:10;;;;;;;13.27;3.40;;;;;;;;;;5031692;28;20079;-70
2023/05/19 01:01:35;;;;;;;9.50;2.60;;;;;;;;;;5029740;28;20386;-70
2023/05/19 01:04:03;;;;;;;7.50;3.13;;;;;;;;;;5026913;28;20268;-70
2023/05/19 01:06:28;;;;;;;11.75;3.53;;;;;;;;;;5029138;28;20264;-70
2023/05/19 01:08:54;;;;;;;7.97;2.97;;;;;;;;;;5029832;28;20109;-70
2023/05/19 01:11:20;;;;;;;7.95;3.28;;;;;;;;;;5028947;28;20014;-70
2023/05/19 01:13:45;;;;;;;7.78;3.05;;;;;;;;;;5029623;28;20467;-70
2023/05/19 01:16:16;;;;;;;6.72;3.10;;;;;;;;;;5029035;28;20063;-70
2023/05/19 01:18:41;;;;;;;8.23;2.97;;;;;;;;;;5032207;28;20033;-70
2023/05/19 01:21:24;;;;;;;10.35;3.00;;;;;;;;;;5028741;28;20108;-70
2023/05/19 01:24:07;;;;;;;5.75;2.85;;;;;;;;;;5029897;28;20021;-70
2023/05/19 01:26:39;;;;;;;7.68;2.88;;;;;;;;;;5026081;28;20025;-70
2023/05/19 01:29:15;;;;;;;11.10;3.30;;;;;;;;;;5028999;28;20017;-70
2023/05/19 01:31:41;;;;;;;9.25;4.00;;;;;;;;;;5031535;28;20026;-70
2023/05/19 01:34:07;;;;;;;13.50;3.20;;;;;;;;;;5030285;28;20021;-70
2023/05/19 01:36:32;;;;;;;12.13;3.20;;;;;;;;;;5030763;28;20049;-70
2023/05/19 01:38:58;;;;;;;12.00;3.20;;;;;;;;;;5030022;28;20067;-70
2023/05/19 01:41:24;;;;;;;10.90;3.53;;;;;;;;;;5030042;28;20471;-70
2023/05/19 01:43:50;;;;;;;16.95;3.35;;;;;;;;;;5029032;28;20055;-70
2023/05/19 01:46:16;;;;;;;10.50;3.60;;;;;;;;;;5030005;28;20030;-70
2023/05/19 01:48:42;;;;;;;8.15;3.53;;;;;;;;;;5028617;28;20029;-70
2023/05/19 01:51:07;;;;;;;8.75;2.92;;;;;;;;;;5030652;28;20024;-70
2023/05/19 01:53:32;;;;;;;10.60;4.18;;;;;;;;;;5028854;28;20434;-70
2023/05/19 01:55:57;;;;;;;7.97;3.05;;;;;;;;;;5032479;28;20518;-70
2023/05/19 01:58:41;;;;;;;17.02;3.63;;;;;;;;;;5029056;28;20021;-70
2023/05/19 02:01:25;;;;;;;11.90;3.60;;;;;;;;;;5030936;28;20025;-70
2023/05/19 02:03:59;;;;;;;7.53;3.45;;;;;;;;;;5029260;28;20026;-70
2023/05/19 02:06:39;;;;;;;7.22;3.28;;;;;;;;;;5021519;28;20075;-70
2023/05/19 02:09:23;;;;;;;12.73;3.90;;;;;;;;;;5029750;28;20014;-70
2023/05/19 02:11:59;;;;;;;14.20;4.05;;;;;;;;;;5031264;28;20025;-70
2023/05/19 02:14:28;;;;;;;6.55;3.10;;;;;;;;;;5023571;28;20108;-70
2023/05/19 02:16:56;;;;;;;8.37;2.80;;;;;;;;;;5028090;28;20087;-70
2023/05/19 02:19:28;;;;;;;7.57;3.40;;;;;;;;;;5030573;28;20068;-70
2023/05/19 02:21:53;;;;;;;6.85;3.28;;;;;;;;;;5029342;28;20013;-70
2023/05/19 02:24:19;;;;;;;8.02;3.45;;;;;;;;;;5029569;28;20386;-71
2023/05/19 02:26:44;;;;;;;7.25;3.17;;;;;;;;;;5031588;28;20087;-70
2023/05/19 02:29:09;;;;;;;12.70;3.53;;;;;;;;;;5033785;28;20056;-70
2023/05/19 02:31:34;;;;;;;8.30;3.08;;;;;;;;;;5033399;28;20021;-70
2023/05/19 02:34:00;;;;;;;13.03;3.97;;;;;;;;;;5032615;28;20025;-70
2023/05/19 02:36:25;;;;;;;6.80;3.07;;;;;;;;;;5032811;28;20330;-70
2023/05/19 02:38:50;;;;;;;16.60;3.58;;;;;;;;;;5035453;28;20272;-70
2023/05/19 02:41:15;;;;;;;10.07;3.88;;;;;;;;;;5033943;28;20500;-70
2023/05/19 02:43:41;;;;;;;11.83;3.77;;;;;;;;;;5031393;28;20032;-70
2023/05/19 02:46:06;;;;;;;10.50;3.40;;;;;;;;;;5033348;28;20287;-70
2023/05/19 02:48:31;;;;;;;8.10;2.97;;;;;;;;;;5032710;28;20376;-70
2023/05/19 02:50:56;;;;;;;7.43;3.28;;;;;;;;;;5032045;28;20266;-70
2023/05/19 02:53:21;;;;;;;8.70;2.83;;;;;;;;;;5031776;28;20194;-70
2023/05/19 02:55:47;;;;;;;7.75;3.95;;;;;;;;;;5031414;28;20022;-70
2023/05/19 02:58:12;;;;;;;7.93;4.00;;;;;;;;;;5028898;28;20061;-70
2023/05/19 03:00:37;;;;;;;10.15;3.42;;;;;;;;;;5032963;28;20779;-70
2023/05/19 03:03:03;;;;;;;6.00;3.70;;;;;;;;;;5032335;28;20125;-70
2023/05/19 03:05:29;;;;;;;14.38;3.80;;;;;;;;;;5029273;28;20457;-70
2023/05/19 03:07:54;;;;;;;12.00;3.50;;;;;;;;;;5032441;28;20017;-70
2023/05/19 03:10:19;;;;;;;6.88;3.05;;;;;;;;;;5033823;28;20378;-70
2023/05/19 03:12:44;;;;;;;5.63;2.88;;;;;;;;;;5029479;28;20020;-70
2023/05/19 03:15:11;;;;;;;16.52;3.90;;;;;;;;;;5032838;28;20048;-70
2023/05/19 03:17:38;;;;;;;9.77;3.80;;;;;;;;;;5032231;28;20467;-70
2023/05/19 03:20:04;;;;;;;14.45;3.75;;;;;;;;;;5031367;28;20014;-71
2023/05/19 03:22:29;;;;;;;7.13;3.88;;;;;;;;;;5032169;28;20482;-70
2023/05/19 03:24:54;;;;;;;14.13;4.43;;;;;;;;;;5031271;28;20036;-70
2023/05/19 03:27:20;;;;;;;10.85;3.63;;;;;;;;;;5030042;28;20018;-70
2023/05/19 03:29:45;;;;;;;12.70;3.60;;;;;;;;;;5031634;28;20021;-70
2023/05/19 03:32:10;;;;;;;12.23;3.87;;;;;;;;;;5031941;28;20028;-70
2023/05/19 03:34:35;;;;;;;11.73;4.27;;;;;;;;;;5033207;28;20325;-70
2023/05/19 03:37:00;;;;;;;9.97;3.70;;;;;;;;;;5032058;28;20260;-70
2023/05/19 03:39:25;;;;;;;7.27;3.40;;;;;;;;;;5032194;28;20272;-70
2023/05/19 03:41:51;;;;;;;6.87;3.07;;;;;;;;;;5031037;28;20305;-70
2023/05/19 03:44:16;;;;;;;10.88;3.50;;;;;;;;;;5033146;28;20689;-70
2023/05/19 03:46:41;;;;;;;10.40;3.63;;;;;;;;;;5032305;28;20528;-70
2023/05/19 03:49:06;;;;;;;7.43;3.63;;;;;;;;;;5029941;28;20252;-70
2023/05/19 03:51:33;;;;;;;11.88;3.63;;;;;;;;;;5028764;28;20858;-70
2023/05/19 03:53:58;;;;;;;11.50;3.42;;;;;;;;;;5035335;28;20048;-70
2023/05/19 03:56:26;;;;;;;5.25;3.00;;;;;;;;;;5030720;28;20052;-70
2023/05/19 03:58:53;;;;;;;6.95;3.30;;;;;;;;;;5030787;28;20027;-70
2023/05/19 04:01:18;;;;;;;17.83;3.67;;;;;;;;;;5029152;28;20029;-70
2023/05/19 04:03:43;;;;;;;9.40;3.33;;;;;;;;;;5031334;28;20021;-70
2023/05/19 04:06:09;;;;;;;8.30;2.97;;;;;;;;;;5031091;28;20025;-70
2023/05/19 04:08:34;;;;;;;10.38;3.65;;;;;;;;;;5033859;28;20398;-70
2023/05/19 04:11:00;;;;;;;9.07;2.85;;;;;;;;;;5031319;28;20134;-70
2023/05/19 04:13:25;;;;;;;11.32;3.65;;;;;;;;;;5029590;28;20152;-70
2023/05/19 04:15:50;;;;;;;10.65;3.70;;;;;;;;;;5031035;28;20030;-70
2023/05/19 04:18:15;;;;;;;10.82;4.10;;;;;;;;;;5030764;28;20033;-70
2023/05/19 04:20:41;;;;;;;10.43;3.10;;;;;;;;;;5031045;28;20025;-70
2023/05/19 04:23:06;;;;;;;8.32;3.22;;;;;;;;;;5025926;28;20271;-70
2023/05/19 04:25:32;;;;;;;15.75;6.00;;;;;;;;;;5031016;28;20029;-70
2023/05/19 04:27:57;;;;;;;12.45;4.70;;;;;;;;;;5025788;28;20048;-70
2023/05/19 04:30:23;;;;;;;14.40;4.70;;;;;;;;;;5030870;28;20260;-70
2023/05/19 04:32:49;;;;;;;12.15;4.47;;;;;;;;;;5029653;28;20018;-70
2023/05/19 04:35:16;;;;;;;10.48;4.53;;;;;;;;;;5030099;28;20030;-70
2023/05/19 04:37:44;;;;;;;11.65;4.88;;;;;;;;;;5030370;28;20025;-70
2023/05/19 04:40:10;;;;;;;13.38;4.28;;;;;;;;;;5030264;28;20025;-70
2023/05/19 04:42:35;;;;;;;10.95;5.35;;;;;;;;;;5027173;28;20086;-70
2023/05/19 04:45:02;;;;;;;11.17;4.00;;;;;;;;;;5028641;28;20033;-70
2023/05/19 04:47:28;;;;;;;9.05;4.30;;;;;;;;;;5030198;28;20718;-70
2023/05/19 04:49:54;;;;;;;17.25;5.13;;;;;;;;;;5028203;28;20467;-70
2023/05/19 04:52:21;;;;;;;16.75;4.68;;;;;;;;;;5025497;28;20029;-70
2023/05/19 04:54:46;;;;;;;17.70;6.03;;;;;;;;;;5026480;28;20013;-70
2023/05/19 04:57:11;;;;;;;13.20;5.13;;;;;;;;;;5029094;28;20021;-70
2023/05/19 04:59:36;;;;;;;24.57;5.20;;;;;;;;;;5029518;28;20355;-70
2023/05/19 05:02:03;;;;;;;20.23;5.63;;;;;;;;;;5031473;28;20272;-70
2023/05/19 05:04:28;;;;;;;12.43;5.32;;;;;;;;;;5027754;28;20010;-70
2023/05/19 05:06:53;;;;;;;13.50;4.90;;;;;;;;;;5029170;28;20489;-70
2023/05/19 05:09:18;;;;;;;21.10;5.40;;;;;;;;;;5030455;28;20072;-70
2023/05/19 05:11:44;;;;;;;14.10;5.72;;;;;;;;;;5030884;28;20010;-70
2023/05/19 05:14:09;;;;;;;17.35;6.07;;;;;;;;;;5030122;28;20024;-70
2023/05/19 05:16:35;;;;;;;12.07;5.90;;;;;;;;;;5031474;28;20040;-70
2023/05/19 05:19:00;;;;;;;14.48;5.72;;;;;;;;;;5029335;28;20021;-70
2023/05/19 05:21:26;;;;;;;21.25;5.65;;;;;;;;;;5029555;28;20025;-70
2023/05/19 05:23:52;;;;;;;15.85;4.82;;;;;;;;;;5029278;28;20045;-70
2023/05/19 05:26:18;;;;;;;13.52;4.50;;;;;;;;;;5027739;28;20053;-70
2023/05/19 05:28:43;;;;;;;19.85;4.68;;;;;;;;;;5033108;28;20525;-70
2023/05/19 05:31:08;;;;;;;12.15;3.90;;;;;;;;;;5027882;28;20108;-70
2023/05/19 05:33:34;;;;;;;15.30;4.30;;;;;;;;;;5033988;28;20028;-70
2023/05/19 05:35:59;;;;;;;7.68;4.18;;;;;;;;;;5029621;28;20028;-70
2023/05/19 05:38:24;;;;;;;11.37;3.80;;;;;;;;;;5029498;28;20064;-70
2023/05/19 05:40:49;;;;;;;15.07;4.35;;;;;;;;;;5028078;28;20646;-70
2023/05/19 05:43:15;;;;;;;12.68;4.18;;;;;;;;;;5029950;28;20067;-70
2023/05/19 05:45:40;;;;;;;10.32;3.47;;;;;;;;;;5030155;28;20029;-70
2023/05/19 05:48:05;;;;;;;9.07;3.63;;;;;;;;;;5033255;28;20052;-70
2023/05/19 05:50:31;;;;;;;11.48;3.50;;;;;;;;;;5030652;28;20292;-70
2023/05/19 05:52:56;;;;;;;14.95;2.67;;;;;;;;;;5026666;28;20021;-70
2023/05/19 05:55:21;;;;;;;7.90;2.50;;;;;;;;;;5029821;28;20032;-70
2023/05/19 05:57:49;;;;;;;12.38;2.42;;;;;;;;;;5032322;28;20025;-70
2023/05/19 06:00:14;;;;;;;5.45;2.40;;;;;;;;;;5026782;28;20036;-70
2023/05/19 06:02:42;;;;;;;5.25;2.10;;;;;;;;;;5033262;28;20029;-70
2023/05/19 06:05:09;;;;;;;6.53;2.17;;;;;;;;;;5031502;28;20021;-70
2023/05/19 06:07:36;;;;;;;6.88;1.63;;;;;;;;;;5031549;28;20017;-70
2023/05/19 06:10:01;;;;;;;8.82;2.38;;;;;;;;;;5029971;28;20348;-70
2023/05/19 06:12:26;;;;;;;15.02;2.60;;;;;;;;;;5031963;28;20252;-70
2023/05/19 06:14:52;;;;;;;11.13;2.13;;;;;;;;;;5034010;28;20096;-70
2023/05/19 06:17:17;;;;;;;11.88;2.22;;;;;;;;;;5040296;28;20746;-70
2023/05/19 06:19:42;;;;;;;9.10;1.55;;;;;;;;;;5033766;28;20175;-70
2023/05/19 06:22:07;;;;;;;9.93;2.00;;;;;;;;;;5033809;28;20481;-75
2023/05/19 06:24:32;;;;;;;4.47;1.40;;;;;;;;;;5032907;28;20041;-70
2023/05/19 06:26:58;;;;;;;12.93;1.67;;;;;;;;;;5024134;28;20299;-70
2023/05/19 06:29:23;;;;;;;11.20;1.53;;;;;;;;;;5034616;28;20280;-70
2023/05/19 06:31:48;;;;;;;7.53;1.60;;;;;;;;;;5033297;28;20248;-70
2023/05/19 06:34:16;;;;;;;8.57;2.03;;;;;;;;;;5038937;28;20705;-70
2023/05/19 06:36:41;;;;;;;7.00;1.83;;;;;;;;;;5033431;28;20310;-70
2023/05/19 06:39:06;;;;;;;4.18;1.40;;;;;;;;;;5033083;28;20014;-70
2023/05/19 06:41:31;;;;;;;6.13;1.73;;;;;;;;;;5033501;28;20029;-70
2023/05/19 06:43:57;;;;;;;10.27;1.80;;;;;;;;;;5032713;28;20812;-70
2023/05/19 06:46:22;;;;;;;5.95;1.98;;;;;;;;;;5032492;28;20288;-70
2023/05/19 06:48:47;;;;;;;8.27;1.75;;;;;;;;;;5032874;28;20017;-70
2023/05/19 06:51:14;;;;;;;6.32;1.00;;;;;;;;;;5036175;28;20486;-70
2023/05/19 06:53:39;;;;;;;8.98;2.00;;;;;;;;;;5027327;28;20032;-70
2023/05/19 06:56:05;;;;;;;4.32;1.67;;;;;;;;;;5034565;28;20021;-70
2023/05/19 06:58:30;;;;;;;6.82;1.80;;;;;;;;;;5033802;28;20071;-70
2023/05/19 07:00:55;;;;;;;6.68;1.92;;;;;;;;;;5033627;28;20017;-70
2023/05/19 07:03:20;;;;;;;7.85;2.05;;;;;;;;;;5028654;28;20075;-70
2023/05/19 07:05:46;;;;;;;7.13;1.33;;;;;;;;;;5033070;28;20036;-70
2023/05/19 07:08:11;;;;;;;3.90;1.25;;;;;;;;;;5032101;28;20028;-70
2023/05/19 07:10:36;;;;;;;5.47;1.33;;;;;;;;;;5029892;28;20471;-70
2023/05/19 07:13:02;;;;;;;5.35;1.33;;;;;;;;;;5032508;28;20298;-70
2023/05/19 07:15:27;;;;;;;10.50;1.70;;;;;;;;;;5034782;28;20124;-70
2023/05/19 07:17:52;;;;;;;11.63;3.37;;;;;;;;;;5030024;28;20033;-70
2023/05/19 07:20:17;;;;;;;10.97;1.50;;;;;;;;;;5032711;28;20307;-69
2023/05/19 07:22:42;;;;;;;5.38;1.30;;;;;;;;;;5029599;28;20265;-69
2023/05/19 07:25:08;;;;;;;2.87;1.30;;;;;;;;;;5026745;28;20075;-69
2023/05/19 07:27:33;;;;;;;4.85;1.50;;;;;;;;;;5027582;28;20784;-69
2023/05/19 07:29:58;;;;;;;8.70;2.30;;;;;;;;;;5030574;28;20055;-69
2023/05/19 07:32:24;;;;;;;9.23;1.77;;;;;;;;;;5027981;28;20137;-69
2023/05/19 07:34:49;;;;;;;8.48;1.50;;;;;;;;;;5030999;28;20511;-70
2023/05/19 07:37:15;;;;;;;10.30;2.65;;;;;;;;;;5030520;28;20028;-69
2023/05/19 07:39:40;;;;;;;9.77;1.70;;;;;;;;;;5028043;28;20021;-70
2023/05/19 07:42:05;;;;;;;8.47;1.83;;;;;;;;;;5031611;28;20023;-70
2023/05/19 07:44:30;;;;;;;9.50;1.60;;;;;;;;;;5035169;28;20294;-70
2023/05/19 07:46:56;;;;;;;4.43;1.43;;;;;;;;;;5032740;28;20026;-70
2023/05/19 07:49:21;;;;;;;6.15;1.60;;;;;;;;;;5028335;28;20264;-70
2023/05/19 07:51:46;;;;;;;8.27;1.77;;;;;;;;;;5026608;28;20072;-70
2023/05/19 07:54:12;;;;;;;6.73;1.30;;;;;;;;;;5030136;28;20390;-70
2023/05/19 07:56:37;;;;;;;10.97;1.40;;;;;;;;;;5030205;28;20510;-70
2023/05/19 07:59:02;;;;;;;8.23;1.43;;;;;;;;;;5025354;28;20032;-70
2023/05/19 08:01:28;;;;;;;5.72;1.67;;;;;;;;;;5031601;28;20025;-69
2023/05/19 08:03:53;;;;;;;7.38;1.90;;;;;;;;;;5031007;28;20022;-69
2023/05/19 08:06:18;;;;;;;7.13;1.17;;;;;;;;;;5023133;28;20109;-70
2023/05/19 08:08:45;;;;;;;2.53;1.10;;;;;;;;;;5024893;28;20490;-69
2023/05/19 08:11:10;;;;;;;4.60;1.38;;;;;;;;;;5026706;28;20271;-69
2023/05/19 08:13:35;;;;;;;4.95;1.10;;;;;;;;;;5031648;28;20096;-69
2023/05/19 08:16:01;;;;;;;5.33;2.27;;;;;;;;;;5033657;28;20021;-69
2023/05/19 08:18:26;;;;;;;8.93;2.38;;;;;;;;;;5028203;28;20267;-69
2023/05/19 08:20:52;;;;;;;1.55;0.45;;;;;;;;;;5028445;28;20112;-69
2023/05/19 08:23:17;;;;;;;9.37;1.20;;;;;;;;;;5028605;28;20053;-68
2023/05/19 08:25:42;;;;;;;8.03;1.20;;;;;;;;;;5025634;28;20029;-69
2023/05/19 08:28:07;;;;;;;5.15;1.85;;;;;;;;;;5026726;28;20321;-69
2023/05/19 08:30:33;;;;;;;11.85;1.77;;;;;;;;;;5032067;28;20293;-69
2023/05/19 08:32:58;;;;;;;6.87;1.33;;;;;;;;;;5033633;28;20013;-69
2023/05/19 08:35:23;;;;;;;8.37;1.50;;;;;;;;;;5030421;28;20307;-70
2023/05/19 08:37:48;;;;;;;9.10;2.60;;;;;;;;;;5023839;28;20657;-69
2023/05/19 08:40:15;;;;;;;3.73;1.33;;;;;;;;;;5026537;28;20029;-69
2023/05/19 08:42:41;;;;;;;11.18;1.50;;;;;;;;;;5024634;28;20290;-69
2023/05/19 08:45:06;;;;;;;6.30;1.90;;;;;;;;;;5028014;28;20021;-69
2023/05/19 08:47:31;;;;;;;5.22;1.20;;;;;;;;;;5028894;28;20025;-69
2023/05/19 08:50:01;;;;;;;5.82;1.00;;;;;;;;;;5027517;28;20021;-69
2023/05/19 08:52:26;;;;;;;7.97;1.40;;;;;;;;;;5024165;28;20367;-69
2023/05/19 08:54:59;;;;;;;4.10;1.05;;;;;;;;;;5026781;28;20279;-69
2023/05/19 08:57:25;;;;;;;5.93;1.33;;;;;;;;;;5025508;28;20104;-69
2023/05/19 08:59:50;;;;;;;6.43;1.48;;;;;;;;;;5020599;28;20116;-69
2023/05/19 09:02:17;;;;;;;8.20;1.38;;;;;;;;;;5031470;28;20065;-69
2023/05/19 09:04:44;;;;;;;7.05;1.45;;;;;;;;;;5023265;28;20048;-69
2023/05/19 09:07:10;;;;;;;6.43;1.95;;;;;;;;;;5020975;28;20406;-69
2023/05/19 09:09:35;;;;;;;5.97;1.45;;;;;;;;;;5030935;28;20312;-69
2023/05/19 09:12:00;;;;;;;3.50;1.30;;;;;;;;;;5028066;28;20072;-69
2023/05/19 09:14:26;;;;;;;13.38;2.13;;;;;;;;;;5020394;28;20144;-69
2023/05/19 09:16:51;;;;;;;10.02;1.58;;;;;;;;;;5023817;28;20018;-69
2023/05/19 09:19:17;;;;;;;7.88;1.60;;;;;;;;;;5024422;28;20455;-69
2023/05/19 09:21:44;;;;;;;4.35;1.17;;;;;;;;;;5026995;28;20026;-69
2023/05/19 09:24:09;;;;;;;5.72;1.20;;;;;;;;;;5028789;28;20005;-69
2023/05/19 09:26:36;;;;;;;5.95;1.23;;;;;;;;;;5026764;28;20079;-69
2023/05/19 09:29:02;;;;;;;6.22;1.70;;;;;;;;;;5031777;28;20033;-69
2023/05/19 09:31:30;;;;;;;8.73;1.55;;;;;;;;;;5025690;28;20017;-69
2023/05/19 09:33:56;;;;;;;6.13;1.45;;;;;;;;;;5023069;28;20220;-69
2023/05/19 09:36:21;;;;;;;8.47;1.80;;;;;;;;;;5024168;28;20025;-69
2023/05/19 09:38:46;;;;;;;6.97;1.50;;;;;;;;;;5032842;28;20025;-69
2023/05/19 09:41:13;;;;;;;7.20;1.57;;;;;;;;;;5024903;28;20278;-69
2023/05/19 09:43:38;;;;;;;8.75;1.70;;;;;;;;;;5034525;28;20272;-69
2023/05/19 09:46:08;;;;;;;8.40;1.60;;;;;;;;;;5032463;28;20494;-69
2023/05/19 09:48:34;;;;;;;5.47;1.13;;;;;;;;;;5032605;28;20018;-69
2023/05/19 09:50:59;;;;;;;4.03;1.38;;;;;;;;;;5033095;28;20049;-69
2023/05/19 09:53:25;;;;;;;7.85;1.58;;;;;;;;;;5026670;28;20408;-71
2023/05/19 09:55:54;;;;;;;5.85;1.27;;;;;;;;;;5035939;28;20021;-69
2023/05/19 09:58:20;;;;;;;9.90;1.73;;;;;;;;;;5030335;28;20049;-69
2023/05/19 10:00:46;;;;;;;7.80;1.38;;;;;;;;;;5030360;28;20036;-69
2023/05/19 10:03:12;;;;;;;3.90;1.15;;;;;;;;;;5028637;28;20053;-69
2023/05/19 10:05:37;;;;;;;10.05;2.05;;;;;;;;;;5032726;28;20053;-69
2023/05/19 10:08:05;;;;;;;5.78;1.70;;;;;;;;;;5032833;28;20096;-69
2023/05/19 10:10:31;;;;;;;9.23;1.40;;;;;;;;;;5030184;28;20014;-69
2023/05/19 10:12:57;;;;;;;6.03;2.00;;;;;;;;;;5036406;28;20463;-69
2023/05/19 10:15:23;;;;;;;9.80;1.70;;;;;;;;;;5031234;28;20020;-69
2023/05/19 10:17:49;;;;;;;6.20;1.33;;;;;;;;;;5029806;28;20414;-69
2023/05/19 10:20:15;;;;;;;8.30;1.77;;;;;;;;;;5032426;28;20029;-69
2023/05/19 10:22:41;;;;;;;5.97;1.30;;;;;;;;;;5032388;28;20060;-69
2023/05/19 10:25:07;;;;;;;8.98;1.92;;;;;;;;;;5032399;28;20053;-69
2023/05/19 10:27:34;;;;;;;7.43;1.65;;;;;;;;;;5031481;28;20022;-69
2023/05/19 10:30:03;;;;;;;6.82;1.70;;;;;;;;;;5032340;28;20022;-69
2023/05/19 10:32:30;;;;;;;6.18;1.50;;;;;;;;;;5029834;28;20018;-70
2023/05/19 10:34:58;;;;;;;5.28;2.28;;;;;;;;;;5032216;28;20464;-70
2023/05/19 10:37:27;;;;;;;7.55;1.42;;;;;;;;;;5030374;28;20025;-71
2023/05/19 10:39:54;;;;;;;7.55;1.50;;;;;;;;;;5027673;28;20494;-69
2023/05/19 10:42:22;;;;;;;6.20;1.50;;;;;;;;;;5029811;28;20057;-69
2023/05/19 10:44:53;;;;;;;6.78;1.67;;;;;;;;;;5031950;28;20021;-69
2023/05/19 10:47:25;;;;;;;5.20;1.10;;;;;;;;;;5033143;28;20032;-70
2023/05/19 10:49:53;;;;;;;5.82;1.58;;;;;;;;;;5032272;28;20415;-70
2023/05/19 10:52:20;;;;;;;9.68;1.70;;;;;;;;;;5030878;28;20029;-69
2023/05/19 10:54:45;;;;;;;4.60;1.77;;;;;;;;;;5031919;28;20025;-69
2023/05/19 10:57:15;;;;;;;6.32;1.90;;;;;;;;;;5033717;28;20095;-69
2023/05/19 10:59:43;;;;;;;7.47;1.27;;;;;;;;;;5030752;28;20148;-70
2023/05/19 11:02:08;;;;;;;6.05;1.63;;;;;;;;;;5025980;28;20068;-70
2023/05/19 11:04:52;;;;;;;3.90;1.57;;;;;;;;;;5028849;28;20026;-70
2023/05/19 11:07:21;;;;;;;8.77;2.03;;;;;;;;;;5033048;28;20265;-70
2023/05/19 11:09:50;;;;;;;3.10;1.45;;;;;;;;;;5032558;28;20017;-70
2023/05/19 11:12:18;;;;;;;5.45;1.30;;;;;;;;;;5025490;28;20021;-69
2023/05/19 11:14:43;;;;;;;8.07;2.33;;;;;;;;;;5023949;28;20057;-70
2023/05/19 11:17:12;;;;;;;13.93;1.60;;;;;;;;;;5023698;28;20072;-70
2023/05/19 11:19:39;;;;;;;3.45;1.52;;;;;;;;;;5025144;28;20076;-69
2023/05/19 11:22:09;;;;;;;3.83;1.33;;;;;;;;;;5029550;28;20497;-69
2023/05/19 11:24:35;;;;;;;7.70;1.80;;;;;;;;;;5022417;28;20021;-70
2023/05/19 11:27:19;;;;;;;4.50;1.80;;;;;;;;;;5030142;28;20104;-69
2023/05/19 11:29:44;;;;;;;8.45;2.15;;;;;;;;;;5031423;28;20096;-70
2023/05/19 11:32:10;;;;;;;4.10;1.67;;;;;;;;;;5028919;28;20151;-70
2023/05/19 11:34:36;;;;;;;4.72;1.77;;;;;;;;;;5024371;28;20459;-70
2023/05/19 11:37:01;;;;;;;7.63;1.58;;;;;;;;;;5031109;28;20020;-70
2023/05/19 11:39:27;;;;;;;5.60;1.90;;;;;;;;;;5030035;28;20473;-69
2023/05/19 11:41:54;;;;;;;3.83;1.40;;;;;;;;;;5034086;28;20276;-69
2023/05/19 11:44:19;;;;;;;7.78;1.60;;;;;;;;;;5033036;28;20025;-70
2023/05/19 11:46:44;;;;;;;5.10;1.60;;;;;;;;;;5030379;28;20033;-70
2023/05/19 11:49:10;;;;;;;7.88;1.65;;;;;;;;;;5031169;28;20096;-70
2023/05/19 11:51:35;;;;;;;7.53;2.20;;;;;;;;;;5030026;28;20033;-70
2023/05/19 11:54:01;;;;;;;10.30;1.92;;;;;;;;;;5029289;28;20275;-69
2023/05/19 11:56:32;;;;;;;6.38;1.75;;;;;;;;;;5030402;28;20537;-69
2023/05/19 11:58:57;;;;;;;5.07;1.35;;;;;;;;;;5024819;28;20029;-69
2023/05/19 12:01:24;;;;;;;12.47;1.57;;;;;;;;;;5027662;28;20040;-69
2023/05/19 12:03:49;;;;;;;4.30;1.40;;;;;;;;;;5030870;28;20021;-69
2023/05/19 12:06:16;;;;;;;3.63;1.27;;;;;;;;;;5024775;28;20532;-69
2023/05/19 12:08:41;;;;;;;6.80;1.65;;;;;;;;;;5030036;28;20279;-69
2023/05/19 12:11:06;;;;;;;4.65;1.27;;;;;;;;;;5030297;28;20481;-69
2023/05/19 12:13:32;;;;;;;5.57;1.63;;;;;;;;;;5029961;28;20028;-69
2023/05/19 12:16:02;;;;;;;11.57;2.88;;;;;;;;;;5030329;28;20036;-69
2023/05/19 12:18:27;;;;;;;;;;;;;;;;;;5030373;28;20108;-70
2023/05/19 12:20:52;;;;;;;9.32;1.65;;;;;;;;;;5030091;28;20004;-69
2023/05/19 12:23:18;;;;;;;3.78;1.25;;;;;;;;;;5031080;28;20021;-69
2023/05/19 12:25:43;;;;;;;5.32;1.40;;;;;;;;;;5026347;28;20018;-69
2023/05/19 12:28:08;;;;;;;13.43;2.78;;;;;;;;;;5027794;28;20013;-69
2023/05/19 12:30:33;;;;;;;5.77;1.47;;;;;;;;;;5029127;28;20446;-69
2023/05/19 12:33:00;;;;;;;9.02;1.83;;;;;;;;;;5030229;28;20022;-69
2023/05/19 12:35:26;;;;;;;6.10;1.77;;;;;;;;;;5028416;28;20021;-69
2023/05/19 12:37:51;;;;;;;9.20;1.58;;;;;;;;;;5028132;28;20104;-69
2023/05/19 12:40:17;;;;;;;6.18;1.55;;;;;;;;;;5024187;28;20112;-69
2023/05/19 12:42:45;;;;;;;9.77;1.55;;;;;;;;;;5028719;28;20025;-69
2023/05/19 12:45:10;;;;;;;8.18;1.77;;;;;;;;;;5029635;28;20022;-69
2023/05/19 12:47:36;;;;;;;4.75;1.30;;;;;;;;;;5028069;28;20025;-69
2023/05/19 12:50:02;;;;;;;4.32;1.55;;;;;;;;;;5028367;28;20056;-69
2023/05/19 12:52:28;;;;;;;6.32;1.60;;;;;;;;;;5028382;28;20386;-69
2023/05/19 12:55:06;;;;;;;2.63;0.95;;;;;;;;;;5025776;28;20022;-69
2023/05/19 12:57:38;;;;;;;10.82;1.52;;;;;;;;;;5023542;28;20030;-70
2023/05/19 13:00:09;;;;;;;11.45;1.50;;;;;;;;;;5032066;28;20355;-70
2023/05/19 13:02:35;;;;;;;5.90;1.98;;;;;;;;;;5033566;28;20501;-70
2023/05/19 13:05:01;;;;;;;7.95;1.70;;;;;;;;;;5026056;28;20029;-70
2023/05/19 13:07:26;;;;;;;9.57;1.92;;;;;;;;;;5027676;28;20024;-70
2023/05/19 13:09:51;;;;;;;6.30;1.43;;;;;;;;;;5028028;28;20045;-71
2023/05/19 13:12:16;;;;;;;12.00;1.70;;;;;;;;;;5018113;28;20360;-70
2023/05/19 13:14:42;;;;;;;3.83;1.23;;;;;;;;;;5016043;28;20021;-70
2023/05/19 13:17:07;;;;;;;4.95;1.33;;;;;;;;;;5024725;28;20594;-70
2023/05/19 13:19:33;;;;;;;4.93;1.25;;;;;;;;;;5030036;28;20379;-71
2023/05/19 13:21:58;;;;;;;9.80;1.80;;;;;;;;;;5017423;28;20025;-71
2023/05/19 13:24:23;;;;;;;8.43;1.20;;;;;;;;;;5017115;28;20327;-71
2023/05/19 13:26:48;;;;;;;8.43;1.35;;;;;;;;;;5025694;28;20394;-71
2023/05/19 13:29:13;;;;;;;4.63;1.20;;;;;;;;;;5029635;28;20017;-71
2023/05/19 13:31:39;;;;;;;6.28;1.70;;;;;;;;;;5029989;28;20528;-72
2023/05/19 13:34:04;;;;;;;3.03;1.07;;;;;;;;;;5029619;28;20378;-71
2023/05/19 13:36:31;;;;;;;5.13;1.40;;;;;;;;;;5028262;28;20348;-71
2023/05/19 13:38:57;;;;;;;4.72;1.67;;;;;;;;;;5026850;28;20060;-71
2023/05/19 13:41:25;;;;;;;8.57;1.77;;;;;;;;;;5028588;28;20045;-71
2023/05/19 13:43:59;;;;;;;6.20;1.35;;;;;;;;;;5029828;28;20060;-71
2023/05/19 13:46:25;;;;;;;5.57;1.63;;;;;;;;;;5027223;28;20025;-71
2023/05/19 13:48:50;;;;;;;8.32;1.67;;;;;;;;;;5029573;28;20101;-71
2023/05/19 13:51:15;;;;;;;5.33;1.47;;;;;;;;;;5029613;28;20071;-71
2023/05/19 13:53:41;;;;;;;7.63;1.92;;;;;;;;;;5044109;28;20467;-71
2023/05/19 13:56:06;;;;;;;5.57;1.67;;;;;;;;;;5025863;28;20009;-71
2023/05/19 13:58:31;;;;;;;5.73;1.30;;;;;;;;;;5029376;28;20036;-71
2023/05/19 14:00:58;;;;;;;8.73;1.33;;;;;;;;;;5029624;28;20279;-70
2023/05/19 14:03:23;;;;;;;4.72;1.48;;;;;;;;;;5029117;28;20021;-71
2023/05/19 14:05:49;;;;;;;7.67;2.00;;;;;;;;;;5029441;28;20436;-71
2023/05/19 14:08:14;;;;;;;5.67;1.70;;;;;;;;;;5029143;28;20014;-71
2023/05/19 14:10:41;;;;;;;8.73;1.52;;;;;;;;;;5029773;28;20091;-71
2023/05/19 14:13:09;;;;;;;10.23;2.05;;;;;;;;;;5025627;28;20010;-71
2023/05/19 14:15:36;;;;;;;5.25;1.90;;;;;;;;;;5029436;28;20067;-71
2023/05/19 14:18:01;;;;;;;4.93;1.60;;;;;;;;;;5029340;28;20377;-71
2023/05/19 14:20:27;;;;;;;3.80;1.27;;;;;;;;;;5029115;28;20454;-71
2023/05/19 14:22:52;;;;;;;5.17;1.30;;;;;;;;;;5030284;28;20036;-71
2023/05/19 14:25:17;;;;;;;9.50;1.70;;;;;;;;;;5031365;28;20032;-70
2023/05/19 14:27:42;;;;;;;2.92;1.15;;;;;;;;;;5032818;28;20017;-71
2023/05/19 14:30:08;;;;;;;5.73;2.03;;;;;;;;;;5029096;28;20020;-71
2023/05/19 14:32:33;;;;;;;10.55;1.63;;;;;;;;;;5032804;28;20436;-71